createdAt,value
2023-04-11T00:01:46.525Z,16.87
2023-04-11T00:06:46.526Z,16.79
2023-04-11T00:11:46.592Z,16.78
2023-04-11T00:16:46.529Z,16.71
2023-04-11T00:21:46.521Z,16.81
2023-04-11T00:26:46.533Z,16.83
2023-04-11T00:31:46.524Z,16.91
2023-04-11T00:36:46.536Z,16.94
2023-04-11T00:41:46.537Z,16.58
2023-04-11T00:46:46.528Z,16.34
2023-04-11T00:52:03.017Z,16.29
2023-04-11T00:56:46.531Z,16.37
2023-04-11T01:01:46.544Z,16.58
2023-04-11T01:06:46.545Z,16.68
2023-04-11T01:11:46.547Z,16.73
2023-04-11T01:16:46.549Z,16.73
2023-04-11T01:21:46.539Z,16.67
2023-04-11T01:26:46.552Z,16.27
2023-04-11T01:31:46.542Z,16.2
2023-04-11T01:36:46.555Z,16.14
2023-04-11T01:41:46.555Z,16.25
2023-04-11T01:46:46.546Z,16.31
2023-04-11T01:51:46.559Z,16.16
2023-04-11T01:56:46.550Z,15.97
2023-04-11T02:01:46.563Z,15.9
2023-04-11T02:06:46.553Z,15.85
2023-04-11T02:11:46.566Z,15.87
2023-04-11T02:16:46.567Z,15.9
2023-04-11T02:21:46.558Z,16.01
2023-04-11T02:26:46.569Z,16.02
2023-04-11T02:31:46.561Z,15.75
2023-04-11T02:36:46.573Z,15.69
2023-04-11T02:41:46.574Z,15.8
2023-04-11T02:46:46.576Z,15.77
2023-04-11T02:51:46.578Z,15.79
2023-04-11T02:56:46.568Z,15.81
2023-04-11T03:01:46.580Z,15.75
2023-04-11T03:06:46.571Z,15.48
2023-04-11T03:11:46.583Z,15.27
2023-04-11T03:16:46.584Z,15.05
2023-04-11T03:21:46.575Z,14.72
2023-04-11T03:26:46.587Z,14.32
2023-04-11T03:36:46.590Z,13.85
2023-04-11T03:41:46.581Z,13.84
2023-04-11T03:46:46.592Z,13.84
2023-04-11T03:51:46.593Z,13.77
2023-04-11T03:56:46.585Z,13.77
2023-04-11T04:01:46.598Z,13.74
2023-04-11T04:06:46.587Z,13.74
2023-04-11T04:11:46.599Z,13.66
2023-04-11T04:16:46.601Z,13.62
2023-04-11T04:21:46.601Z,13.61
2023-04-11T04:26:46.604Z,13.77
2023-04-11T04:31:46.593Z,13.72
2023-04-11T04:36:46.605Z,13.72
2023-04-11T04:41:46.596Z,13.77
2023-04-11T04:46:46.608Z,13.67
2023-04-11T04:51:46.609Z,13.64
2023-04-11T04:56:46.634Z,13.7
2023-04-11T05:01:46.611Z,13.66
2023-04-11T05:06:46.602Z,13.68
2023-04-11T05:11:46.614Z,13.72
2023-04-11T05:21:46.616Z,13.73
2023-04-11T05:26:46.617Z,13.66
2023-04-11T05:31:46.609Z,13.57
2023-04-11T05:36:46.622Z,13.52
2023-04-11T05:41:46.611Z,13.44
2023-04-11T05:46:46.623Z,13.23
2023-04-11T05:51:46.624Z,12.81
2023-04-11T05:56:46.625Z,12.53
2023-04-11T06:01:46.627Z,12.43
2023-04-11T06:06:46.617Z,12.4
2023-04-11T06:11:46.628Z,12.29
2023-04-11T06:16:46.620Z,12.23
2023-04-11T06:21:46.631Z,12.09
2023-04-11T06:26:46.632Z,12.04
2023-04-11T06:31:46.675Z,12.1
2023-04-11T06:36:46.636Z,12.22
2023-04-11T06:41:46.625Z,12.34
2023-04-11T06:46:46.636Z,12.3
2023-04-11T06:51:46.627Z,12.31
2023-04-11T06:56:46.638Z,12.38
2023-04-11T07:01:46.640Z,12.29
2023-04-11T07:06:46.631Z,12.25
2023-04-11T07:11:46.644Z,12.42
2023-04-11T07:16:46.633Z,12.46
2023-04-11T07:21:46.644Z,13.05
2023-04-11T07:26:46.646Z,13.43
2023-04-11T07:31:46.646Z,13.5
2023-04-11T07:36:46.649Z,13.76
2023-04-11T07:41:46.639Z,13.97
2023-04-11T07:46:46.650Z,14.4
2023-04-11T07:51:46.640Z,14.26
2023-04-11T07:56:46.652Z,14.8
2023-04-11T08:01:46.654Z,14.5
2023-04-11T08:06:46.681Z,14.35
2023-04-11T08:11:46.656Z,14.54
2023-04-11T08:16:46.648Z,15.02
2023-04-11T08:21:46.659Z,15.45
2023-04-11T08:26:46.650Z,15.98
2023-04-11T08:31:46.662Z,17.4
2023-04-11T08:36:46.663Z,16.5
2023-04-11T08:41:46.655Z,17.64
2023-04-11T08:46:46.668Z,19.79
2023-04-11T08:51:46.658Z,20.76
2023-04-11T08:56:46.670Z,20.16
2023-04-11T09:01:46.671Z,17.21
2023-04-11T09:06:46.673Z,15.9
2023-04-11T09:12:03.153Z,17.35
2023-04-11T09:16:46.666Z,17.16
2023-04-11T09:21:46.679Z,17.37
2023-04-11T09:26:46.669Z,16.42
2023-04-11T09:31:46.681Z,15.35
2023-04-11T09:36:46.682Z,15.06
2023-04-11T09:41:46.673Z,15.35
2023-04-11T09:46:46.687Z,15.18
2023-04-11T09:51:46.676Z,17.89
2023-04-11T09:56:46.688Z,18.9
2023-04-11T10:01:46.680Z,22.07
2023-04-11T10:06:46.692Z,19.02
2023-04-11T10:11:46.693Z,20.92
2023-04-11T10:16:46.685Z,19.4
2023-04-11T10:21:46.699Z,21.85
2023-04-11T10:26:46.689Z,22.43
2023-04-11T10:31:46.701Z,21.53
2023-04-11T10:36:46.703Z,19.59
2023-04-11T10:41:46.705Z,21.79
2023-04-11T10:46:46.708Z,23.43
2023-04-11T10:51:46.699Z,23.57
2023-04-11T10:56:46.712Z,19.84
2023-04-11T11:01:46.703Z,18.07
2023-04-11T11:11:46.717Z,20.57
2023-04-11T11:16:46.708Z,22
2023-04-11T11:21:46.722Z,23.84
2023-04-11T11:26:46.712Z,24.7
2023-04-11T11:31:46.724Z,25.18
2023-04-11T11:42:03.207Z,24.36
2023-04-11T11:47:03.210Z,23.46
2023-04-11T11:52:03.201Z,24.33
2023-04-11T11:57:03.212Z,23.55
2023-04-11T12:02:03.215Z,24.93
2023-04-11T12:07:03.217Z,26.27
2023-04-11T12:11:46.744Z,26.27
2023-04-11T12:16:46.734Z,28.58
2023-04-11T12:21:46.748Z,28.17
2023-04-11T12:26:46.739Z,28.37
2023-04-11T12:31:46.752Z,27.56
2023-04-11T12:36:46.754Z,26.58
2023-04-11T12:41:46.746Z,24.87
2023-04-11T12:51:46.751Z,22.54
2023-04-11T12:57:03.240Z,20.68
2023-04-11T13:02:03.243Z,22.75
2023-04-11T13:07:03.244Z,25.02
2023-04-11T13:12:03.248Z,23.89
2023-04-11T13:17:03.239Z,21.66
2023-04-11T13:21:46.773Z,19.37
2023-04-11T13:26:46.775Z,17.04
2023-04-11T13:31:46.776Z,16.07
2023-04-11T13:36:46.780Z,15.72
2023-04-11T13:41:46.769Z,17.6
2023-04-11T13:46:46.781Z,22.12
2023-04-11T13:51:46.772Z,24.89
2023-04-11T13:56:46.785Z,25.94
2023-04-11T14:01:46.788Z,26.89
2023-04-11T14:06:46.780Z,25.44
2023-04-11T14:11:46.794Z,22.01
2023-04-11T14:16:46.784Z,23.66
2023-04-11T14:21:46.796Z,22.43
2023-04-11T14:26:46.798Z,19.71
2023-04-11T14:31:46.800Z,21.9
2023-04-11T14:36:46.851Z,21.18
2023-04-11T14:41:46.794Z,19.56
2023-04-11T14:46:46.808Z,18.54
2023-04-11T14:51:46.797Z,17.83
2023-04-11T14:56:46.809Z,17.37
2023-04-11T15:01:46.811Z,17.66
2023-04-11T15:06:46.812Z,18.64
2023-04-11T15:11:46.816Z,18.73
2023-04-11T15:16:46.806Z,18.54
2023-04-11T15:21:46.817Z,18.69
2023-04-11T15:26:46.809Z,17.92
2023-04-11T15:31:46.821Z,16.99
2023-04-11T15:36:46.822Z,16.66
2023-04-11T15:41:46.814Z,17.53
2023-04-11T15:46:46.828Z,17.74
2023-04-11T15:51:46.817Z,17.96
2023-04-11T15:56:46.829Z,17.94
2023-04-11T16:01:46.820Z,18.36
2023-04-11T16:06:46.833Z,18.31
2023-04-11T16:11:46.834Z,18.25
2023-04-11T16:16:46.825Z,18.41
2023-04-11T16:21:46.839Z,18.1
2023-04-11T16:26:46.828Z,17.87
2023-04-11T16:31:46.840Z,17.45
2023-04-11T16:36:46.842Z,17.1
2023-04-11T16:41:46.843Z,16.81
2023-04-11T16:46:46.847Z,16.43
2023-04-11T16:51:46.836Z,16.32
2023-04-11T16:56:46.848Z,16.1
2023-04-11T17:01:46.839Z,16.27
2023-04-11T17:06:46.851Z,16.27
2023-04-11T17:11:46.853Z,16.23
2023-04-11T17:16:46.844Z,15.98
2023-04-11T17:22:03.334Z,15.69
2023-04-11T17:26:46.847Z,15.55
2023-04-11T17:31:46.859Z,15.38
2023-04-11T17:36:46.860Z,15.34
2023-04-11T17:41:46.861Z,15.21
2023-04-11T17:46:46.887Z,15.06
2023-04-11T17:51:46.854Z,14.97
2023-04-11T17:56:46.870Z,14.79
2023-04-11T18:06:46.869Z,14.41
2023-04-11T18:11:46.871Z,14.37
2023-04-11T18:16:46.872Z,14.28
2023-04-11T18:21:46.874Z,14.21
2023-04-11T18:26:46.864Z,14.21
2023-04-11T18:31:46.876Z,14.06
2023-04-11T18:36:46.866Z,13.96
2023-04-11T18:41:46.879Z,13.83
2023-04-11T18:51:46.870Z,13.67
2023-04-11T18:56:46.883Z,13.6
2023-04-11T19:01:46.872Z,13.42
2023-04-11T19:06:46.885Z,13.33
2023-04-11T19:11:46.885Z,13.13
2023-04-11T19:16:46.887Z,12.84
2023-04-11T19:21:46.887Z,12.68
2023-04-11T19:26:46.879Z,12.49
2023-04-11T19:31:46.934Z,12.23
2023-04-11T19:36:46.881Z,12.04
2023-04-11T19:41:46.893Z,11.95
2023-04-11T19:46:46.893Z,11.76
2023-04-11T19:51:46.895Z,11.74
2023-04-11T19:56:46.897Z,11.67
2023-04-11T20:01:46.886Z,11.63
2023-04-11T20:06:46.898Z,11.48
2023-04-11T20:11:46.888Z,11.4
2023-04-11T20:16:46.900Z,11.13
2023-04-11T20:21:46.901Z,10.91
2023-04-11T20:26:46.891Z,10.81
2023-04-11T20:31:46.902Z,10.9
2023-04-11T20:36:46.893Z,10.93
2023-04-11T20:41:46.905Z,10.94
2023-04-11T20:46:46.905Z,10.77
2023-04-11T20:51:46.907Z,10.71
2023-04-11T20:56:46.931Z,10.72
2023-04-11T21:01:46.898Z,10.7
2023-04-11T21:06:46.913Z,10.65
2023-04-11T21:11:46.900Z,10.68
2023-04-11T21:16:46.912Z,10.63
2023-04-11T21:21:46.913Z,10.5
2023-04-11T21:26:46.914Z,10.31
2023-04-11T21:31:46.914Z,10.44
2023-04-11T21:36:46.905Z,10.45
2023-04-11T21:41:46.917Z,10.7
2023-04-11T21:46:46.907Z,10.61
2023-04-11T21:51:46.919Z,10.55
2023-04-11T21:56:46.919Z,10.43
2023-04-11T22:01:46.910Z,10.48
2023-04-11T22:06:46.921Z,10.32
2023-04-11T22:11:46.912Z,10.65
2023-04-11T22:16:46.924Z,10.88
2023-04-11T22:21:46.924Z,10.86
2023-04-11T22:26:46.926Z,10.73
2023-04-11T22:31:46.925Z,10.77
2023-04-11T22:36:46.916Z,10.66
2023-04-11T22:41:46.971Z,10.68
2023-04-11T22:46:46.918Z,10.67
2023-04-11T22:51:46.930Z,10.72
2023-04-11T22:56:46.930Z,10.87
2023-04-11T23:01:46.932Z,10.81
2023-04-11T23:06:46.932Z,10.71
2023-04-11T23:11:46.923Z,10.78
2023-04-11T23:16:46.935Z,10.57
2023-04-11T23:21:46.925Z,10.71
2023-04-11T23:26:46.937Z,10.66
2023-04-11T23:31:46.937Z,10.65
2023-04-11T23:36:46.927Z,10.74
2023-04-11T23:41:46.939Z,10.82
2023-04-11T23:46:46.930Z,10.72
2023-04-11T23:51:46.942Z,10.66
2023-04-11T23:56:46.942Z,10.64
